Time;durP1;ratioP1;P1;durP2;ratioP2;P2;SDS_P1;SDS_P2;PMS_P1;PMS_P2;Temp;Humidity;BMP_temperature;BMP_pressure;BME280_temperature;BME280_humidity;BME280_pressure;Samples;Min_cycle;Max_cycle;Signal;HPM_P1;HPM_P2
2023/03/16 00:00:21;;;;;;;;;;;;;;;3.70;77.32;101733.19;10375560;28;19926;-64
2023/03/16 00:05:24;;;;;;;;;;;;;;;3.64;76.07;101718.59;10375893;28;20084;-63
2023/03/16 00:10:27;;;;;;;;;;;;;;;3.49;76.57;101711.03;10415993;28;19925;-64
2023/03/16 00:15:29;;;;;;;;;;;;;;;3.59;76.77;101704.00;10415402;28;19929;-63
2023/03/16 00:20:32;;;;;;;;;;;;;;;3.63;76.17;101719.47;10415051;28;19929;-63
2023/03/16 00:25:34;;;;;;;;;;;;;;;3.75;75.83;101728.81;10421941;28;20380;-63
2023/03/16 00:30:36;;;;;;;;;;;;;;;3.79;75.65;101725.28;10423245;28;20373;-63
2023/03/16 00:35:39;;;;;;;;;;;;;;;3.75;76.20;101715.84;10423887;28;19975;-64
2023/03/16 00:40:41;;;;;;;;;;;;;;;4.08;75.34;101706.72;10422500;28;19925;-64
2023/03/16 00:45:43;;;;;;;;;;;;;;;3.84;76.54;101694.97;10422277;28;19928;-63
2023/03/16 00:50:46;;;;;;;;;;;;;;;3.82;76.63;101693.31;10423190;28;19925;-63
2023/03/16 00:55:48;;;;;;;;;;;;;;;3.79;77.52;101683.84;10398710;28;19952;-64
2023/03/16 01:00:52;;;;;;;;;;;;;;;3.86;76.72;101680.25;10403527;28;19929;-63
2023/03/16 01:05:58;;;;;;;;;;;;;;;3.79;77.26;101672.63;10421381;28;20371;-63
2023/03/16 01:11:04;;;;;;;;;;;;;;;3.71;77.58;101677.91;10421112;28;19925;-63
2023/03/16 01:16:07;;;;;;;;;;;;;;;3.78;76.50;101660.53;10423752;28;19924;-64
2023/03/16 01:21:12;;;;;;;;;;;;;;;3.86;77.21;101654.34;10421269;28;19932;-63
2023/03/16 01:26:16;;;;;;;;;;;;;;;3.83;78.59;101657.03;10420543;28;19967;-63
2023/03/16 01:31:18;;;;;;;;;;;;;;;3.85;77.92;101654.38;10418876;28;19925;-64
2023/03/16 01:36:21;;;;;;;;;;;;;;;3.68;77.14;101637.38;10420619;28;19932;-63
2023/03/16 01:41:24;;;;;;;;;;;;;;;3.75;77.56;101640.75;10419987;28;19929;-64
2023/03/16 01:46:27;;;;;;;;;;;;;;;3.83;77.69;101638.88;10418931;28;20384;-64
2023/03/16 01:51:31;;;;;;;;;;;;;;;3.72;77.85;101638.19;10419553;28;20292;-64
2023/03/16 01:56:39;;;;;;;;;;;;;;;3.69;78.22;101633.06;10402740;28;20289;-64
2023/03/16 02:01:41;;;;;;;;;;;;;;;3.76;77.33;101613.09;10418954;28;20372;-63
2023/03/16 02:06:43;;;;;;;;;;;;;;;3.65;77.69;101605.50;10417613;28;19925;-63
2023/03/16 02:11:46;;;;;;;;;;;;;;;3.68;77.76;101603.72;10417606;28;20388;-63
2023/03/16 02:16:49;;;;;;;;;;;;;;;3.62;78.58;101597.78;10419384;28;19925;-63
2023/03/16 02:21:54;;;;;;;;;;;;;;;3.89;78.21;101602.50;10418964;28;19929;-63
2023/03/16 02:26:58;;;;;;;;;;;;;;;3.80;77.74;101589.72;10387715;28;19987;-64
2023/03/16 02:32:01;;;;;;;;;;;;;;;3.63;77.84;101582.22;10411748;28;19929;-63
2023/03/16 02:37:03;;;;;;;;;;;;;;;3.61;78.67;101575.34;10416662;28;19925;-63
2023/03/16 02:42:08;;;;;;;;;;;;;;;3.78;79.17;101556.94;10417186;28;19925;-63
2023/03/16 02:47:12;;;;;;;;;;;;;;;3.66;78.77;101568.34;10416474;28;19991;-64
2023/03/16 02:52:14;;;;;;;;;;;;;;;3.74;78.42;101566.50;10417468;28;19925;-63
2023/03/16 02:57:16;;;;;;;;;;;;;;;3.73;79.26;101572.53;10417777;28;19932;-63
2023/03/16 03:02:18;;;;;;;;;;;;;;;3.74;79.04;101570.84;10418215;28;19925;-64
2023/03/16 03:07:21;;;;;;;;;;;;;;;3.85;78.90;101569.78;10416654;28;19932;-64
2023/03/16 03:12:23;;;;;;;;;;;;;;;3.68;79.61;101558.81;10416715;28;19979;-64
2023/03/16 03:17:28;;;;;;;;;;;;;;;3.70;79.82;101559.66;10416194;28;19925;-64
2023/03/16 03:22:31;;;;;;;;;;;;;;;3.70;79.03;101563.09;10416322;28;19933;-64
2023/03/16 03:27:33;;;;;;;;;;;;;;;3.85;79.61;101554.22;10416391;28;19932;-64
2023/03/16 03:32:35;;;;;;;;;;;;;;;4.03;79.04;101560.78;10413732;28;19925;-64
2023/03/16 03:37:39;;;;;;;;;;;;;;;3.71;80.61;101558.78;10415462;28;19933;-64
2023/03/16 03:42:41;;;;;;;;;;;;;;;3.59;81.51;101549.47;10416843;28;19925;-64
2023/03/16 03:47:43;;;;;;;;;;;;;;;3.78;81.68;101542.25;10415141;28;20430;-64
2023/03/16 03:52:45;;;;;;;;;;;;;;;3.67;81.65;101541.59;10415853;28;19933;-63
2023/03/16 03:57:47;;;;;;;;;;;;;;;3.78;83.09;101526.69;10414628;28;19936;-64
2023/03/16 04:02:50;;;;;;;;;;;;;;;3.46;85.24;101525.53;10414852;28;19933;-64
2023/03/16 04:07:56;;;;;;;;;;;;;;;3.58;86.53;101531.38;10413750;28;19931;-64
2023/03/16 04:12:58;;;;;;;;;;;;;;;3.53;85.99;101527.13;10416175;28;19977;-64
2023/03/16 04:18:00;;;;;;;;;;;;;;;3.44;87.21;101521.25;10415367;28;19933;-64
2023/03/16 04:23:03;;;;;;;;;;;;;;;3.43;87.97;101522.97;10415014;28;19925;-63
2023/03/16 04:28:06;;;;;;;;;;;;;;;3.42;87.86;101513.50;10413663;28;19936;-64
2023/03/16 04:33:08;;;;;;;;;;;;;;;3.29;88.38;101520.59;10414250;28;19925;-63
2023/03/16 04:38:11;;;;;;;;;;;;;;;3.27;89.09;101513.75;10415596;28;19975;-64
2023/03/16 04:43:13;;;;;;;;;;;;;;;3.33;88.57;101505.91;10415145;28;19971;-63
2023/03/16 04:48:16;;;;;;;;;;;;;;;3.33;88.53;101511.91;10413393;28;19951;-63
2023/03/16 04:53:18;;;;;;;;;;;;;;;3.45;88.69;101494.47;10413039;28;19985;-64
2023/03/16 04:58:21;;;;;;;;;;;;;;;3.50;87.75;101490.94;10413752;28;20407;-64
2023/03/16 05:03:24;;;;;;;;;;;;;;;3.70;87.03;101495.75;10413488;28;20295;-64
2023/03/16 05:08:26;;;;;;;;;;;;;;;3.48;87.71;101489.22;10414419;28;19933;-64
2023/03/16 05:13:29;;;;;;;;;;;;;;;3.41;88.01;101495.41;10422376;28;19925;-64
2023/03/16 05:18:32;;;;;;;;;;;;;;;3.45;89.29;101484.97;10420871;28;20372;-64
2023/03/16 05:23:34;;;;;;;;;;;;;;;3.53;87.95;101490.00;10420752;28;20434;-64
2023/03/16 05:28:36;;;;;;;;;;;;;;;3.56;89.46;101492.53;10420702;28;19976;-64
2023/03/16 05:33:39;;;;;;;;;;;;;;;3.66;87.42;101495.84;10420345;28;19979;-64
2023/03/16 05:38:41;;;;;;;;;;;;;;;3.72;88.36;101500.91;10420963;28;19979;-64
2023/03/16 05:43:43;;;;;;;;;;;;;;;3.74;88.64;101496.56;10420507;22;19925;-64
2023/03/16 05:48:46;;;;;;;;;;;;;;;3.64;90.17;101482.91;10407635;28;20438;-63
2023/03/16 05:53:48;;;;;;;;;;;;;;;3.57;87.51;101476.16;10417430;28;19932;-63
2023/03/16 05:58:53;;;;;;;;;;;;;;;3.79;88.04;101478.34;10417686;28;20288;-64
2023/03/16 06:03:56;;;;;;;;;;;;;;;3.76;87.39;101481.84;10418045;28;19931;-64
2023/03/16 06:08:58;;;;;;;;;;;;;;;3.79;87.69;101481.78;10418171;28;19925;-64
2023/03/16 06:14:01;;;;;;;;;;;;;;;3.67;88.76;101482.03;10413424;28;19932;-64
2023/03/16 06:19:03;;;;;;;;;;;;;;;3.95;88.93;101481.50;10414386;28;19925;-64
2023/03/16 06:24:07;;;;;;;;;;;;;;;3.95;87.94;101482.38;10418719;28;19929;-64
2023/03/16 06:29:09;;;;;;;;;;;;;;;4.08;88.25;101473.50;10419630;28;19925;-64
2023/03/16 06:34:11;;;;;;;;;;;;;;;4.03;88.70;101472.69;10418883;28;19936;-64
2023/03/16 06:39:14;;;;;;;;;;;;;;;3.91;89.57;101476.38;10416668;28;19925;-64
2023/03/16 06:44:16;;;;;;;;;;;;;;;4.11;89.66;101482.06;10409857;28;19948;-63
2023/03/16 06:49:18;;;;;;;;;;;;;;;3.99;90.13;101484.00;10416413;28;19941;-64
2023/03/16 06:54:20;;;;;;;;;;;;;;;4.07;90.42;101484.72;10388685;28;19932;-64
2023/03/16 06:59:22;;;;;;;;;;;;;;;3.96;93.08;101478.88;10376177;28;19960;-64
2023/03/16 07:04:25;;;;;;;;;;;;;;;4.22;92.19;101480.97;10408471;28;19929;-64
2023/03/16 07:09:28;;;;;;;;;;;;;;;3.95;94.13;101479.78;10417976;28;19926;-63
2023/03/16 07:14:30;;;;;;;;;;;;;;;4.05;96.43;101491.69;10413384;28;19925;-63
2023/03/16 07:19:32;;;;;;;;;;;;;;;4.18;97.44;101481.91;10417741;28;19936;-64
2023/03/16 07:24:34;;;;;;;;;;;;;;;4.19;96.69;101485.38;10416886;28;19924;-64
2023/03/16 07:29:36;;;;;;;;;;;;;;;4.24;100.00;101486.13;10391521;28;19933;-64
2023/03/16 07:34:40;;;;;;;;;;;;;;;4.22;99.65;101490.47;10376262;28;19983;-64
2023/03/16 07:39:42;;;;;;;;;;;;;;;4.23;99.73;101487.00;10374754;28;20387;-64
2023/03/16 07:44:45;;;;;;;;;;;;;;;4.49;99.05;101488.22;10375790;28;19949;-64
2023/03/16 07:49:47;;;;;;;;;;;;;;;4.52;98.88;101478.63;10416102;28;19932;-64
2023/03/16 07:54:50;;;;;;;;;;;;;;;4.47;96.60;101470.09;10416568;28;19925;-64
2023/03/16 07:59:52;;;;;;;;;;;;;;;4.48;99.64;101484.78;10367679;28;19933;-64
2023/03/16 08:04:54;;;;;;;;;;;;;;;4.44;100.00;101485.72;10359211;28;19932;-63
2023/03/16 08:09:56;;;;;;;;;;;;;;;4.56;100.00;101469.06;10374234;28;19933;-63
2023/03/16 08:14:59;;;;;;;;;;;;;;;4.63;96.24;101475.81;10370032;28;19933;-64
2023/03/16 08:20:05;;;;;;;;;;;;;;;4.60;97.43;101473.28;10334140;28;19926;-64
2023/03/16 08:25:11;;;;;;;;;;;;;;;4.59;97.89;101469.84;10340910;28;19925;-65
2023/03/16 08:30:13;;;;;;;;;;;;;;;4.84;98.90;101472.75;10385754;28;19930;-64
2023/03/16 08:35:16;;;;;;;;;;;;;;;4.94;97.84;101456.94;10373930;28;19926;-64
2023/03/16 08:40:21;;;;;;;;;;;;;;;5.33;99.15;101457.75;10384422;28;19933;-64
2023/03/16 08:45:23;;;;;;;;;;;;;;;5.56;98.27;101462.38;10412635;28;19929;-64
2023/03/16 08:50:26;;;;;;;;;;;;;;;5.61;99.08;101451.81;10381874;28;19932;-64
2023/03/16 08:55:29;;;;;;;;;;;;;;;5.75;97.40;101441.94;10380662;28;20296;-64
2023/03/16 09:00:32;;;;;;;;;;;;;;;5.75;96.24;101433.31;10382147;28;19925;-63
2023/03/16 09:05:34;;;;;;;;;;;;;;;5.87;97.67;101438.16;10381367;28;19976;-64
2023/03/16 09:10:37;;;;;;;;;;;;;;;5.72;95.53;101443.78;10380434;28;19926;-64
2023/03/16 09:15:40;;;;;;;;;;;;;;;5.94;91.55;101428.44;10381021;28;19925;-63
2023/03/16 09:20:42;;;;;;;;;;;;;;;5.94;90.43;101421.47;10381393;28;19925;-63
2023/03/16 09:25:45;;;;;;;;;;;;;;;6.22;91.25;101431.16;10380556;28;19925;-64
2023/03/16 09:30:48;;;;;;;;;;;;;;;6.38;88.22;101413.31;10380968;28;19975;-64
2023/03/16 09:35:51;;;;;;;;;;;;;;;6.57;86.44;101412.75;10380330;28;20423;-64
2023/03/16 09:40:56;;;;;;;;;;;;;;;6.51;86.67;101411.22;10378896;28;19929;-64
2023/03/16 09:46:16;;;;;;;;;;;;;;;6.44;85.51;101401.88;10379728;28;20396;-64
2023/03/16 09:51:24;;;;;;;;;;;;;;;6.74;86.19;101407.03;10379579;28;19925;-64
2023/03/16 09:56:32;;;;;;;;;;;;;;;6.72;84.45;101408.84;10378339;28;19969;-63
2023/03/16 10:01:37;;;;;;;;;;;;;;;7.12;82.95;101400.59;10378102;28;20292;-63
2023/03/16 10:06:43;;;;;;;;;;;;;;;7.33;84.07;101398.16;10379053;28;20044;-64
2023/03/16 10:11:46;;;;;;;;;;;;;;;7.41;82.41;101386.59;10377627;28;20368;-63
2023/03/16 10:16:50;;;;;;;;;;;;;;;7.99;79.70;101385.41;10378089;28;19972;-64
2023/03/16 10:21:53;;;;;;;;;;;;;;;8.59;79.07;101371.81;10377958;28;19984;-63
2023/03/16 10:26:59;;;;;;;;;;;;;;;8.82;78.47;101373.50;10377742;28;19925;-64
2023/03/16 10:32:06;;;;;;;;;;;;;;;9.10;75.86;101357.56;10378046;28;19925;-64
2023/03/16 10:37:10;;;;;;;;;;;;;;;9.07;74.90;101349.84;10378596;28;19926;-64
2023/03/16 10:42:14;;;;;;;;;;;;;;;11.14;73.49;101349.84;10377090;28;19932;-64
2023/03/16 10:47:24;;;;;;;;;;;;;;;11.34;68.34;101353.22;10363320;28;19953;-64
2023/03/16 10:52:29;;;;;;;;;;;;;;;11.06;67.84;101353.78;10333426;28;19933;-64
2023/03/16 10:57:32;;;;;;;;;;;;;;;12.81;67.44;101346.13;10336840;28;19926;-64
2023/03/16 11:02:34;;;;;;;;;;;;;;;14.57;62.77;101332.69;10336411;28;19926;-64
2023/03/16 11:07:38;;;;;;;;;;;;;;;14.19;59.86;101321.09;10335638;28;19988;-64
2023/03/16 11:12:40;;;;;;;;;;;;;;;14.24;58.48;101324.25;10335966;28;20000;-64
2023/03/16 11:17:43;;;;;;;;;;;;;;;13.73;59.67;101331.88;10336441;28;19980;-64
2023/03/16 11:22:47;;;;;;;;;;;;;;;13.33;57.43;101323.78;10334659;28;19925;-64
2023/03/16 11:27:58;;;;;;;;;;;;;;;14.22;56.38;101299.81;10336131;28;19930;-64
2023/03/16 11:33:01;;;;;;;;;;;;;;;13.10;58.30;101310.22;10336502;28;19925;-64
2023/03/16 11:38:06;;;;;;;;;;;;;;;11.85;59.80;101295.44;10335787;28;20355;-64
2023/03/16 11:43:11;;;;;;;;;;;;;;;12.77;59.55;101299.94;10334740;28;19977;-64
2023/03/16 11:48:19;;;;;;;;;;;;;;;12.06;59.63;101290.84;10335499;28;19930;-64
2023/03/16 11:53:40;;;;;;;;;;;;;;;11.54;60.86;101286.63;10333498;28;19926;-64
2023/03/16 11:58:55;;;;;;;;;;;;;;;11.41;60.74;101275.09;10370454;28;20160;-64
2023/03/16 12:04:02;;;;;;;;;;;;;;;11.63;61.40;101282.66;10317291;28;20274;-64
2023/03/16 12:09:11;;;;;;;;;;;;;;;11.24;61.45;101266.34;10333723;28;19926;-64
2023/03/16 12:14:22;;;;;;;;;;;;;;;12.31;59.62;101266.66;10334841;28;19937;-64
2023/03/16 12:19:27;;;;;;;;;;;;;;;11.70;60.41;101265.66;10337329;28;20024;-64
2023/03/16 12:24:31;;;;;;;;;;;;;;;11.95;59.68;101238.94;10343640;28;20383;-64
2023/03/16 12:29:33;;;;;;;;;;;;;;;12.25;60.24;101239.00;10330795;28;19996;-64
2023/03/16 12:34:49;;;;;;;;;;;;;;;12.56;57.27;101231.97;10382485;28;19926;-64
2023/03/16 12:40:10;;;;;;;;;;;;;;;13.08;56.93;101222.72;10382373;28;19932;-64
2023/03/16 12:45:31;;;;;;;;;;;;;;;14.78;55.25;101209.22;10344099;28;19930;-64
2023/03/16 12:50:34;;;;;;;;;;;;;;;15.44;54.04;101195.84;10339990;28;19936;-64
2023/03/16 12:55:36;;;;;;;;;;;;;;;16.81;50.24;101180.41;10324135;28;19926;-65
2023/03/16 13:00:40;;;;;;;;;;;;;;;16.47;49.00;101175.06;10340243;28;19972;-64
2023/03/16 13:05:48;;;;;;;;;;;;;;;17.69;49.84;101173.50;10341229;28;19933;-64
2023/03/16 13:11:08;;;;;;;;;;;;;;;18.64;46.16;101170.84;10341137;28;19977;-64
2023/03/16 13:16:10;;;;;;;;;;;;;;;17.17;47.64;101154.72;10340752;28;20414;-68
2023/03/16 13:21:15;;;;;;;;;;;;;;;17.36;48.49;101146.97;10322985;28;20412;-64
2023/03/16 13:26:21;;;;;;;;;;;;;;;17.06;49.41;101152.91;10342008;28;19925;-64
2023/03/16 13:31:37;;;;;;;;;;;;;;;17.52;47.76;101132.50;10323092;28;20430;-64
2023/03/16 13:36:40;;;;;;;;;;;;;;;17.80;46.73;101121.31;10322681;28;19925;-64
2023/03/16 13:41:42;;;;;;;;;;;;;;;16.64;49.43;101128.84;10340283;28;19926;-64
2023/03/16 13:46:46;;;;;;;;;;;;;;;17.52;47.69;101124.56;10297956;28;19977;-64
2023/03/16 13:51:49;;;;;;;;;;;;;;;17.44;46.91;101106.66;10298776;28;20266;-64
2023/03/16 13:56:51;;;;;;;;;;;;;;;16.47;47.88;101112.47;10297685;28;20403;-64
2023/03/16 14:01:58;;;;;;;;;;;;;;;18.48;48.41;101096.25;10299276;28;19930;-64
2023/03/16 14:07:02;;;;;;;;;;;;;;;17.50;47.29;101073.53;10298462;28;20004;-64
2023/03/16 14:12:05;;;;;;;;;;;;;;;18.17;45.12;101065.28;10298864;28;19933;-64
2023/03/16 14:17:09;;;;;;;;;;;;;;;17.68;44.04;101052.66;10298677;28;20046;-64
2023/03/16 14:22:22;;;;;;;;;;;;;;;17.96;46.70;101035.31;10296744;28;19926;-64
2023/03/16 14:27:27;;;;;;;;;;;;;;;18.41;45.46;101042.94;10297179;28;19926;-63
2023/03/16 14:32:30;;;;;;;;;;;;;;;19.70;44.33;101027.91;10297081;28;19926;-68
2023/03/16 14:37:33;;;;;;;;;;;;;;;18.08;44.00;101025.47;10297935;28;19930;-67
2023/03/16 14:42:36;;;;;;;;;;;;;;;18.48;44.44;101022.03;10297465;28;19958;-67
2023/03/16 14:47:40;;;;;;;;;;;;;;;20.33;41.26;101014.06;10295690;28;19930;-66
2023/03/16 14:52:44;;;;;;;;;;;;;;;20.63;41.84;101001.50;10297211;28;19985;-66
2023/03/16 14:57:48;;;;;;;;;;;;;;;19.09;44.20;100995.38;10295974;28;19981;-66
2023/03/16 15:02:56;;;;;;;;;;;;;;;21.13;40.15;100992.19;10296418;28;20016;-66
2023/03/16 15:07:58;;;;;;;;;;;;;;;21.61;39.77;100982.97;10296236;28;20415;-66
2023/03/16 15:13:06;;;;;;;;;;;;;;;21.26;39.63;100975.81;10294741;28;19933;-64
2023/03/16 15:18:08;;;;;;;;;;;;;;;21.42;41.17;100988.47;10295731;28;19926;-65
2023/03/16 15:23:13;;;;;;;;;;;;;;;19.62;39.76;100987.97;10296149;28;19926;-64
2023/03/16 15:28:19;;;;;;;;;;;;;;;21.12;40.02;100966.56;10294828;28;19926;-64
2023/03/16 15:33:22;;;;;;;;;;;;;;;19.85;39.62;100969.88;10295184;28;20324;-65
2023/03/16 15:38:26;;;;;;;;;;;;;;;19.39;40.99;100950.25;10295550;28;20278;-62
2023/03/16 15:43:30;;;;;;;;;;;;;;;20.53;37.53;100935.03;10297416;28;20418;-62
2023/03/16 15:48:33;;;;;;;;;;;;;;;21.97;36.54;100934.03;10335824;28;20014;-63
2023/03/16 15:53:38;;;;;;;;;;;;;;;23.42;35.07;100934.69;10335145;28;19998;-62
2023/03/16 15:58:40;;;;;;;;;;;;;;;23.96;34.15;100939.44;10334643;28;19926;-62
2023/03/16 16:03:43;;;;;;;;;;;;;;;23.15;35.06;100924.19;10317912;28;19929;-62
2023/03/16 16:08:45;;;;;;;;;;;;;;;25.68;32.32;100926.72;10334945;28;19930;-62
2023/03/16 16:13:48;;;;;;;;;;;;;;;24.40;32.24;100917.50;10334182;28;20377;-62
2023/03/16 16:18:50;;;;;;;;;;;;;;;17.03;43.13;100929.16;10334726;28;19925;-62
2023/03/16 16:23:53;;;;;;;;;;;;;;;16.33;46.07;100930.41;10334718;28;19930;-62
2023/03/16 16:28:59;;;;;;;;;;;;;;;16.59;46.09;100923.00;10334119;28;19930;-62
2023/03/16 16:34:01;;;;;;;;;;;;;;;16.05;47.04;100921.19;10317113;28;20377;-62
2023/03/16 16:39:04;;;;;;;;;;;;;;;15.78;46.93;100922.38;10370944;28;19929;-62
2023/03/16 16:44:20;;;;;;;;;;;;;;;15.92;46.96;100916.00;10373356;28;19926;-62
2023/03/16 16:49:23;;;;;;;;;;;;;;;14.96;49.65;100920.59;10357384;28;19926;-62
2023/03/16 16:54:29;;;;;;;;;;;;;;;14.04;52.48;100930.63;10373652;28;19929;-62
2023/03/16 16:59:32;;;;;;;;;;;;;;;13.41;52.76;100927.03;10372932;28;19976;-61
2023/03/16 17:04:35;;;;;;;;;;;;;;;12.97;54.09;100920.28;10376030;28;19926;-61
2023/03/16 17:09:37;;;;;;;;;;;;;;;13.11;54.84;100924.63;10381129;28;19925;-61
2023/03/16 17:14:40;;;;;;;;;;;;;;;12.90;55.11;100927.75;10381193;28;20411;-62
2023/03/16 17:19:47;;;;;;;;;;;;;;;12.42;55.72;100922.91;10378847;28;19984;-62
2023/03/16 17:24:50;;;;;;;;;;;;;;;12.33;56.75;100923.47;10380728;28;20016;-62
2023/03/16 17:29:52;;;;;;;;;;;;;;;12.12;57.83;100935.31;10381220;28;19926;-62
2023/03/16 17:34:55;;;;;;;;;;;;;;;11.46;59.46;100940.09;10380437;28;20315;-63
2023/03/16 17:39:57;;;;;;;;;;;;;;;11.66;59.41;100934.50;10382340;28;19952;-61
2023/03/16 17:44:59;;;;;;;;;;;;;;;11.15;60.80;100936.66;10380190;28;19976;-61
2023/03/16 17:50:01;;;;;;;;;;;;;;;10.89;61.61;100936.38;10380136;28;19925;-61
2023/03/16 17:55:04;;;;;;;;;;;;;;;10.92;61.91;100930.94;10373422;28;19929;-60
2023/03/16 18:00:14;;;;;;;;;;;;;;;10.60;62.87;100945.84;10411404;22;19925;-67
2023/03/16 18:05:25;;;;;;;;;;;;;;;10.47;63.35;100937.78;10419031;28;20287;-67
2023/03/16 18:10:28;;;;;;;;;;;;;;;10.15;64.32;100945.56;10419939;28;19951;-68
2023/03/16 18:15:31;;;;;;;;;;;;;;;10.00;65.27;100934.19;10418576;28;20363;-67
2023/03/16 18:20:35;;;;;;;;;;;;;;;10.00;65.09;100943.78;10419723;28;19925;-67
2023/03/16 18:25:41;;;;;;;;;;;;;;;9.82;65.45;100929.91;10418916;28;19971;-67
2023/03/16 18:30:44;;;;;;;;;;;;;;;9.93;65.54;100924.09;10419634;28;19932;-68
2023/03/16 18:35:47;;;;;;;;;;;;;;;9.62;65.71;100918.72;10419559;28;19925;-68
2023/03/16 18:40:49;;;;;;;;;;;;;;;9.70;66.62;100926.16;10418802;28;20003;-67
2023/03/16 18:45:52;;;;;;;;;;;;;;;9.61;66.43;100919.63;10419305;28;19925;-67
2023/03/16 18:50:55;;;;;;;;;;;;;;;9.53;65.72;100918.31;10418941;28;19925;-68
2023/03/16 18:55:58;;;;;;;;;;;;;;;9.39;66.40;100914.66;10418630;28;19931;-67
2023/03/16 19:01:00;;;;;;;;;;;;;;;9.27;67.28;100926.56;10418303;28;20380;-67
2023/03/16 19:06:04;;;;;;;;;;;;;;;9.20;68.21;100922.56;10450754;28;19969;-67
2023/03/16 19:11:07;;;;;;;;;;;;;;;9.04;68.92;100908.56;10447574;28;19925;-67
2023/03/16 19:16:16;;;;;;;;;;;;;;;8.95;68.94;100906.41;10419052;28;19948;-67
2023/03/16 19:21:19;;;;;;;;;;;;;;;8.99;68.77;100919.22;10417742;28;19925;-67
2023/03/16 19:26:22;;;;;;;;;;;;;;;8.85;69.28;100895.56;10419733;28;19933;-68
2023/03/16 19:31:24;;;;;;;;;;;;;;;8.90;68.93;100880.53;10415503;28;20380;-67
2023/03/16 19:36:29;;;;;;;;;;;;;;;8.88;68.94;100880.59;10448026;28;19925;-67
2023/03/16 19:41:32;;;;;;;;;;;;;;;8.90;69.16;100880.53;10417104;28;19932;-67
2023/03/16 19:46:34;;;;;;;;;;;;;;;8.92;69.55;100874.28;10417425;28;19925;-67
2023/03/16 19:51:36;;;;;;;;;;;;;;;8.95;69.16;100873.31;10416176;28;20318;-67
2023/03/16 19:56:39;;;;;;;;;;;;;;;8.97;69.93;100875.84;10417841;28;19971;-67
2023/03/16 20:01:41;;;;;;;;;;;;;;;8.98;69.02;100861.84;10447831;28;19925;-67
2023/03/16 20:06:44;;;;;;;;;;;;;;;9.01;68.90;100859.97;10418292;28;19932;-67
2023/03/16 20:11:47;;;;;;;;;;;;;;;8.90;70.62;100859.63;10416151;28;20020;-67
2023/03/16 20:16:50;;;;;;;;;;;;;;;8.82;70.67;100848.72;10447135;28;19925;-67
2023/03/16 20:21:52;;;;;;;;;;;;;;;8.85;71.08;100854.63;10415405;28;20330;-67
2023/03/16 20:26:54;;;;;;;;;;;;;;;8.82;71.20;100849.56;10418966;28;19971;-67
2023/03/16 20:31:56;;;;;;;;;;;;;;;8.73;71.71;100860.47;10423675;28;19929;-67
2023/03/16 20:36:59;;;;;;;;;;;;;;;8.85;71.43;100852.03;10420145;28;20392;-67
2023/03/16 20:42:01;;;;;;;;;;;;;;;8.67;71.92;100834.66;10422955;28;20373;-67
2023/03/16 20:47:03;;;;;;;;;;;;;;;8.64;71.54;100834.78;10423464;28;19925;-67
2023/03/16 20:52:12;;;;;;;;;;;;;;;8.55;72.21;100817.81;10423568;28;19929;-67
2023/03/16 20:57:16;;;;;;;;;;;;;;;8.57;71.55;100815.97;10455892;28;20269;-67
2023/03/16 21:02:24;;;;;;;;;;;;;;;8.57;71.63;100813.38;10421561;28;19925;-66
2023/03/16 21:07:26;;;;;;;;;;;;;;;8.46;72.42;100807.84;10422492;28;20323;-67
2023/03/16 21:12:32;;;;;;;;;;;;;;;8.41;72.54;100808.03;10421829;28;19925;-67
2023/03/16 21:17:36;;;;;;;;;;;;;;;8.38;72.27;100801.19;10453107;28;20331;-67
2023/03/16 21:22:38;;;;;;;;;;;;;;;8.20;73.27;100802.06;10452635;28;19925;-67
2023/03/16 21:27:40;;;;;;;;;;;;;;;8.16;72.99;100798.75;10421747;28;19932;-67
2023/03/16 21:32:43;;;;;;;;;;;;;;;8.06;73.68;100799.28;10422028;28;19944;-67
2023/03/16 21:37:45;;;;;;;;;;;;;;;8.15;72.98;100789.25;10421693;28;19937;-67
2023/03/16 21:42:48;;;;;;;;;;;;;;;8.07;73.32;100798.34;10420169;28;19932;-67
2023/03/16 21:47:50;;;;;;;;;;;;;;;8.03;73.24;100800.25;10420989;28;20327;-67
2023/03/16 21:52:52;;;;;;;;;;;;;;;8.05;72.55;100797.56;10420958;28;19926;-67
2023/03/16 21:57:55;;;;;;;;;;;;;;;8.13;72.77;100800.66;10419531;28;19940;-67
2023/03/16 22:02:58;;;;;;;;;;;;;;;7.97;72.94;100804.00;10418534;28;19979;-67
2023/03/16 22:08:01;;;;;;;;;;;;;;;7.89;73.00;100795.69;10451703;28;19929;-67
2023/03/16 22:13:04;;;;;;;;;;;;;;;7.96;72.37;100785.81;10434796;28;19925;-67
2023/03/16 22:18:09;;;;;;;;;;;;;;;7.82;73.35;100774.25;10434287;28;19940;-67
2023/03/16 22:23:23;;;;;;;;;;;;;;;7.86;72.91;100759.31;10420217;28;19975;-67
2023/03/16 22:28:25;;;;;;;;;;;;;;;7.87;72.51;100768.84;10419525;28;19925;-66
2023/03/16 22:33:28;;;;;;;;;;;;;;;7.78;72.82;100769.25;10418591;28;19925;-66
2023/03/16 22:38:30;;;;;;;;;;;;;;;7.77;72.81;100746.72;10419071;28;19932;-67
2023/03/16 22:43:34;;;;;;;;;;;;;;;7.90;71.80;100770.44;10419424;28;19925;-67
2023/03/16 22:48:36;;;;;;;;;;;;;;;7.75;72.21;100774.59;10419186;28;19929;-66
2023/03/16 22:53:39;;;;;;;;;;;;;;;7.78;72.46;100777.94;10417668;28;20357;-67
2023/03/16 22:58:46;;;;;;;;;;;;;;;7.77;72.31;100784.06;10418108;28;19925;-67
2023/03/16 23:03:49;;;;;;;;;;;;;;;7.84;72.26;100758.56;10449057;28;19931;-67
2023/03/16 23:08:53;;;;;;;;;;;;;;;7.82;71.90;100765.59;10417975;28;19925;-67
2023/03/16 23:13:55;;;;;;;;;;;;;;;7.88;72.54;100757.47;10417360;28;19932;-67
2023/03/16 23:18:57;;;;;;;;;;;;;;;7.82;72.13;100736.94;10449271;28;19929;-66
2023/03/16 23:24:00;;;;;;;;;;;;;;;7.85;71.95;100738.53;10417185;28;20323;-66
2023/03/16 23:29:05;;;;;;;;;;;;;;;7.78;72.96;100733.63;10417583;28;20407;-67
2023/03/16 23:34:11;;;;;;;;;;;;;;;7.74;72.13;100747.72;10416263;28;20346;-67
2023/03/16 23:39:13;;;;;;;;;;;;;;;7.68;72.12;100757.56;10417165;28;19929;-67
2023/03/16 23:44:20;;;;;;;;;;;;;;;7.76;72.40;100748.47;10417174;28;19925;-67
2023/03/16 23:49:23;;;;;;;;;;;;;;;7.74;72.36;100762.50;10448883;28;19971;-67
2023/03/16 23:54:27;;;;;;;;;;;;;;;7.85;71.79;100748.97;10447558;28;19925;-67
2023/03/16 23:59:29;;;;;;;;;;;;;;;7.63;72.45;100761.25;10447517;28;20434;-67
